sensor_id;sensor_type;location;lat;lon;timestamp;temperature;humidity
15413;DHT22;7805;49.554;7.632;2023-06-26T00:00:03;19.70;99.90
15413;DHT22;7805;49.554;7.632;2023-06-26T00:02:30;19.60;99.90
15413;DHT22;7805;49.554;7.632;2023-06-26T00:04:58;19.60;99.90
15413;DHT22;7805;49.554;7.632;2023-06-26T00:07:27;19.60;99.90
15413;DHT22;7805;49.554;7.632;2023-06-26T00:09:53;19.40;99.90
15413;DHT22;7805;49.554;7.632;2023-06-26T00:12:18;19.30;99.90
15413;DHT22;7805;49.554;7.632;2023-06-26T00:14:44;19.20;99.90
15413;DHT22;7805;49.554;7.632;2023-06-26T00:17:11;19.10;99.90
15413;DHT22;7805;49.554;7.632;2023-06-26T00:19:36;19.20;99.90
15413;DHT22;7805;49.554;7.632;2023-06-26T00:22:02;19.10;99.90
15413;DHT22;7805;49.554;7.632;2023-06-26T00:24:27;19.20;99.90
15413;DHT22;7805;49.554;7.632;2023-06-26T00:26:53;19.20;99.90
15413;DHT22;7805;49.554;7.632;2023-06-26T00:29:18;19.20;99.90
15413;DHT22;7805;49.554;7.632;2023-06-26T00:31:44;20.30;99.90
15413;DHT22;7805;49.554;7.632;2023-06-26T00:34:09;19.00;99.90
15413;DHT22;7805;49.554;7.632;2023-06-26T00:36:35;18.90;99.90
15413;DHT22;7805;49.554;7.632;2023-06-26T00:39:01;18.90;99.90
15413;DHT22;7805;49.554;7.632;2023-06-26T00:41:26;19.10;99.90
15413;DHT22;7805;49.554;7.632;2023-06-26T00:43:52;18.80;99.90
15413;DHT22;7805;49.554;7.632;2023-06-26T00:46:17;18.80;99.90
15413;DHT22;7805;49.554;7.632;2023-06-26T00:48:44;18.80;99.90
15413;DHT22;7805;49.554;7.632;2023-06-26T00:51:11;19.10;99.90
15413;DHT22;7805;49.554;7.632;2023-06-26T00:53:37;18.80;99.90
15413;DHT22;7805;49.554;7.632;2023-06-26T00:56:03;18.80;99.90
15413;DHT22;7805;49.554;7.632;2023-06-26T00:58:29;18.80;99.90
15413;DHT22;7805;49.554;7.632;2023-06-26T01:00:54;18.70;99.90
15413;DHT22;7805;49.554;7.632;2023-06-26T01:03:22;18.60;99.90
15413;DHT22;7805;49.554;7.632;2023-06-26T01:05:49;18.50;99.90
15413;DHT22;7805;49.554;7.632;2023-06-26T01:08:16;18.30;99.90
15413;DHT22;7805;49.554;7.632;2023-06-26T01:10:43;18.30;99.90
15413;DHT22;7805;49.554;7.632;2023-06-26T01:13:09;18.50;99.90
15413;DHT22;7805;49.554;7.632;2023-06-26T01:15:34;18.50;99.90
15413;DHT22;7805;49.554;7.632;2023-06-26T01:18:01;18.40;99.90
15413;DHT22;7805;49.554;7.632;2023-06-26T01:20:32;18.40;99.90
15413;DHT22;7805;49.554;7.632;2023-06-26T01:23:05;18.40;99.90
15413;DHT22;7805;49.554;7.632;2023-06-26T01:25:52;18.50;99.90
15413;DHT22;7805;49.554;7.632;2023-06-26T01:28:20;18.30;99.90
15413;DHT22;7805;49.554;7.632;2023-06-26T01:30:46;18.20;99.90
15413;DHT22;7805;49.554;7.632;2023-06-26T01:33:13;18.10;99.90
15413;DHT22;7805;49.554;7.632;2023-06-26T01:35:40;18.10;99.90
15413;DHT22;7805;49.554;7.632;2023-06-26T01:38:19;18.00;99.90
15413;DHT22;7805;49.554;7.632;2023-06-26T01:40:46;18.10;99.90
15413;DHT22;7805;49.554;7.632;2023-06-26T01:46:11;18.00;99.90
15413;DHT22;7805;49.554;7.632;2023-06-26T01:48:43;17.90;99.90
15413;DHT22;7805;49.554;7.632;2023-06-26T01:51:11;17.90;99.90
15413;DHT22;7805;49.554;7.632;2023-06-26T01:53:41;18.00;99.90
15413;DHT22;7805;49.554;7.632;2023-06-26T01:56:13;17.90;99.90
15413;DHT22;7805;49.554;7.632;2023-06-26T01:58:45;17.90;99.90
15413;DHT22;7805;49.554;7.632;2023-06-26T02:01:12;17.90;99.90
15413;DHT22;7805;49.554;7.632;2023-06-26T02:03:37;17.90;99.90
15413;DHT22;7805;49.554;7.632;2023-06-26T02:06:03;17.90;99.90
15413;DHT22;7805;49.554;7.632;2023-06-26T02:08:28;17.80;99.90
15413;DHT22;7805;49.554;7.632;2023-06-26T02:10:54;17.80;99.90
15413;DHT22;7805;49.554;7.632;2023-06-26T02:13:20;17.80;99.90
15413;DHT22;7805;49.554;7.632;2023-06-26T02:15:45;17.80;99.90
15413;DHT22;7805;49.554;7.632;2023-06-26T02:18:11;17.70;99.90
15413;DHT22;7805;49.554;7.632;2023-06-26T02:20:36;17.70;99.90
15413;DHT22;7805;49.554;7.632;2023-06-26T02:23:02;17.60;99.90
15413;DHT22;7805;49.554;7.632;2023-06-26T02:25:27;17.60;99.90
15413;DHT22;7805;49.554;7.632;2023-06-26T02:27:53;17.60;99.90
15413;DHT22;7805;49.554;7.632;2023-06-26T02:30:19;17.60;99.90
15413;DHT22;7805;49.554;7.632;2023-06-26T02:32:44;17.50;99.90
15413;DHT22;7805;49.554;7.632;2023-06-26T02:35:10;17.50;99.90
15413;DHT22;7805;49.554;7.632;2023-06-26T02:37:36;17.50;99.90
15413;DHT22;7805;49.554;7.632;2023-06-26T02:40:02;17.50;99.90
15413;DHT22;7805;49.554;7.632;2023-06-26T02:42:29;17.40;99.90
15413;DHT22;7805;49.554;7.632;2023-06-26T02:44:54;17.50;99.90
15413;DHT22;7805;49.554;7.632;2023-06-26T02:47:20;17.50;99.90
15413;DHT22;7805;49.554;7.632;2023-06-26T02:49:46;17.40;99.90
15413;DHT22;7805;49.554;7.632;2023-06-26T02:52:11;17.40;99.90
15413;DHT22;7805;49.554;7.632;2023-06-26T02:54:37;17.30;99.90
15413;DHT22;7805;49.554;7.632;2023-06-26T02:57:02;17.20;99.90
15413;DHT22;7805;49.554;7.632;2023-06-26T02:59:28;17.20;99.90
15413;DHT22;7805;49.554;7.632;2023-06-26T03:01:54;17.20;99.90
15413;DHT22;7805;49.554;7.632;2023-06-26T03:04:19;17.30;99.90
15413;DHT22;7805;49.554;7.632;2023-06-26T03:06:46;17.20;99.90
15413;DHT22;7805;49.554;7.632;2023-06-26T03:09:12;17.20;99.90
15413;DHT22;7805;49.554;7.632;2023-06-26T03:11:38;17.10;99.90
15413;DHT22;7805;49.554;7.632;2023-06-26T03:14:03;17.10;99.90
15413;DHT22;7805;49.554;7.632;2023-06-26T03:16:29;17.10;99.90
15413;DHT22;7805;49.554;7.632;2023-06-26T03:18:54;17.00;99.90
15413;DHT22;7805;49.554;7.632;2023-06-26T03:21:20;16.90;99.90
15413;DHT22;7805;49.554;7.632;2023-06-26T03:23:45;16.80;99.90
15413;DHT22;7805;49.554;7.632;2023-06-26T03:26:11;16.80;99.90
15413;DHT22;7805;49.554;7.632;2023-06-26T03:28:40;16.80;99.90
15413;DHT22;7805;49.554;7.632;2023-06-26T03:31:05;16.70;99.90
15413;DHT22;7805;49.554;7.632;2023-06-26T03:33:31;16.80;99.90
15413;DHT22;7805;49.554;7.632;2023-06-26T03:35:57;16.90;99.90
15413;DHT22;7805;49.554;7.632;2023-06-26T03:38:23;16.70;99.90
15413;DHT22;7805;49.554;7.632;2023-06-26T03:40:49;16.70;99.90
15413;DHT22;7805;49.554;7.632;2023-06-26T03:43:15;16.70;99.90
15413;DHT22;7805;49.554;7.632;2023-06-26T03:45:40;16.80;99.90
15413;DHT22;7805;49.554;7.632;2023-06-26T03:48:06;16.80;99.90
15413;DHT22;7805;49.554;7.632;2023-06-26T03:50:33;16.80;99.90
15413;DHT22;7805;49.554;7.632;2023-06-26T03:52:59;16.70;99.90
15413;DHT22;7805;49.554;7.632;2023-06-26T03:55:24;16.70;99.90
15413;DHT22;7805;49.554;7.632;2023-06-26T03:57:50;16.70;99.90
15413;DHT22;7805;49.554;7.632;2023-06-26T04:00:16;16.70;99.90
15413;DHT22;7805;49.554;7.632;2023-06-26T04:02:42;16.80;99.90
15413;DHT22;7805;49.554;7.632;2023-06-26T04:05:07;16.80;99.90
15413;DHT22;7805;49.554;7.632;2023-06-26T04:07:33;16.80;99.90
15413;DHT22;7805;49.554;7.632;2023-06-26T04:10:00;16.80;99.90
15413;DHT22;7805;49.554;7.632;2023-06-26T04:12:25;16.80;99.90
15413;DHT22;7805;49.554;7.632;2023-06-26T04:14:51;16.80;99.90
15413;DHT22;7805;49.554;7.632;2023-06-26T04:17:16;16.90;99.90
15413;DHT22;7805;49.554;7.632;2023-06-26T04:19:42;16.90;99.90
15413;DHT22;7805;49.554;7.632;2023-06-26T04:22:07;16.90;99.90
15413;DHT22;7805;49.554;7.632;2023-06-26T04:24:33;17.00;99.90
15413;DHT22;7805;49.554;7.632;2023-06-26T04:26:58;17.10;99.90
15413;DHT22;7805;49.554;7.632;2023-06-26T04:29:26;17.00;99.90
15413;DHT22;7805;49.554;7.632;2023-06-26T04:31:52;17.00;99.90
15413;DHT22;7805;49.554;7.632;2023-06-26T04:34:27;16.90;99.90
15413;DHT22;7805;49.554;7.632;2023-06-26T04:36:53;16.90;99.90
15413;DHT22;7805;49.554;7.632;2023-06-26T04:39:18;16.90;99.90
15413;DHT22;7805;49.554;7.632;2023-06-26T04:41:44;17.00;99.90
15413;DHT22;7805;49.554;7.632;2023-06-26T04:44:10;17.10;99.90
15413;DHT22;7805;49.554;7.632;2023-06-26T04:46:37;17.20;99.90
15413;DHT22;7805;49.554;7.632;2023-06-26T04:49:09;17.30;99.90
15413;DHT22;7805;49.554;7.632;2023-06-26T04:51:36;17.40;99.90
15413;DHT22;7805;49.554;7.632;2023-06-26T04:54:08;17.50;99.90
15413;DHT22;7805;49.554;7.632;2023-06-26T04:56:34;17.70;99.90
15413;DHT22;7805;49.554;7.632;2023-06-26T04:59:00;17.70;99.90
15413;DHT22;7805;49.554;7.632;2023-06-26T05:01:26;17.80;99.90
15413;DHT22;7805;49.554;7.632;2023-06-26T05:03:55;18.00;99.90
15413;DHT22;7805;49.554;7.632;2023-06-26T05:06:21;18.10;99.90
15413;DHT22;7805;49.554;7.632;2023-06-26T05:08:47;18.40;99.90
15413;DHT22;7805;49.554;7.632;2023-06-26T05:11:12;18.50;99.90
15413;DHT22;7805;49.554;7.632;2023-06-26T05:13:38;18.80;99.90
15413;DHT22;7805;49.554;7.632;2023-06-26T05:16:03;18.80;99.90
15413;DHT22;7805;49.554;7.632;2023-06-26T05:18:29;19.00;99.90
15413;DHT22;7805;49.554;7.632;2023-06-26T05:20:55;19.00;99.90
15413;DHT22;7805;49.554;7.632;2023-06-26T05:23:21;19.10;99.90
15413;DHT22;7805;49.554;7.632;2023-06-26T05:25:49;19.20;99.90
15413;DHT22;7805;49.554;7.632;2023-06-26T05:28:15;19.30;99.90
15413;DHT22;7805;49.554;7.632;2023-06-26T05:30:41;19.50;99.90
15413;DHT22;7805;49.554;7.632;2023-06-26T05:33:10;19.70;99.90
15413;DHT22;7805;49.554;7.632;2023-06-26T05:35:36;19.90;99.90
15413;DHT22;7805;49.554;7.632;2023-06-26T05:38:02;20.00;99.90
15413;DHT22;7805;49.554;7.632;2023-06-26T05:40:28;20.30;99.90
15413;DHT22;7805;49.554;7.632;2023-06-26T05:42:53;20.50;99.90
15413;DHT22;7805;49.554;7.632;2023-06-26T05:45:19;20.80;99.90
15413;DHT22;7805;49.554;7.632;2023-06-26T05:47:45;21.00;99.90
15413;DHT22;7805;49.554;7.632;2023-06-26T05:50:12;21.00;99.90
15413;DHT22;7805;49.554;7.632;2023-06-26T05:52:38;21.30;99.90
15413;DHT22;7805;49.554;7.632;2023-06-26T05:55:04;21.50;99.90
15413;DHT22;7805;49.554;7.632;2023-06-26T05:57:30;21.90;99.90
15413;DHT22;7805;49.554;7.632;2023-06-26T05:59:56;22.20;99.90
15413;DHT22;7805;49.554;7.632;2023-06-26T06:02:22;22.40;99.90
15413;DHT22;7805;49.554;7.632;2023-06-26T06:04:48;22.50;99.90
15413;DHT22;7805;49.554;7.632;2023-06-26T06:07:14;22.60;99.90
15413;DHT22;7805;49.554;7.632;2023-06-26T06:09:39;22.70;99.90
15413;DHT22;7805;49.554;7.632;2023-06-26T06:12:06;23.00;99.90
15413;DHT22;7805;49.554;7.632;2023-06-26T06:14:32;23.20;99.90
15413;DHT22;7805;49.554;7.632;2023-06-26T06:16:58;23.40;99.80
15413;DHT22;7805;49.554;7.632;2023-06-26T06:19:23;23.60;99.50
15413;DHT22;7805;49.554;7.632;2023-06-26T06:21:49;23.90;99.20
15413;DHT22;7805;49.554;7.632;2023-06-26T06:24:15;24.20;98.90
15413;DHT22;7805;49.554;7.632;2023-06-26T06:26:40;24.60;98.50
15413;DHT22;7805;49.554;7.632;2023-06-26T06:29:06;24.80;97.90
15413;DHT22;7805;49.554;7.632;2023-06-26T06:31:32;25.10;97.60
15413;DHT22;7805;49.554;7.632;2023-06-26T06:33:57;25.30;97.30
15413;DHT22;7805;49.554;7.632;2023-06-26T06:36:23;25.50;96.90
15413;DHT22;7805;49.554;7.632;2023-06-26T06:38:48;25.80;96.50
15413;DHT22;7805;49.554;7.632;2023-06-26T06:41:14;26.00;96.30
15413;DHT22;7805;49.554;7.632;2023-06-26T06:43:40;26.30;95.80
15413;DHT22;7805;49.554;7.632;2023-06-26T06:46:06;26.50;95.30
15413;DHT22;7805;49.554;7.632;2023-06-26T06:48:32;26.70;94.80
15413;DHT22;7805;49.554;7.632;2023-06-26T06:50:57;26.30;94.50
15413;DHT22;7805;49.554;7.632;2023-06-26T06:53:23;26.40;94.60
15413;DHT22;7805;49.554;7.632;2023-06-26T06:55:49;26.30;94.40
15413;DHT22;7805;49.554;7.632;2023-06-26T06:58:15;26.40;94.30
15413;DHT22;7805;49.554;7.632;2023-06-26T07:00:48;26.50;93.50
15413;DHT22;7805;49.554;7.632;2023-06-26T07:03:14;26.60;93.50
15413;DHT22;7805;49.554;7.632;2023-06-26T07:05:42;26.70;92.60
15413;DHT22;7805;49.554;7.632;2023-06-26T07:08:08;27.00;92.20
15413;DHT22;7805;49.554;7.632;2023-06-26T07:10:34;27.20;91.70
15413;DHT22;7805;49.554;7.632;2023-06-26T07:13:00;27.30;91.40
15413;DHT22;7805;49.554;7.632;2023-06-26T07:15:25;27.30;90.80
15413;DHT22;7805;49.554;7.632;2023-06-26T07:17:51;27.40;90.80
15413;DHT22;7805;49.554;7.632;2023-06-26T07:20:16;27.50;90.60
15413;DHT22;7805;49.554;7.632;2023-06-26T07:22:43;27.60;90.30
15413;DHT22;7805;49.554;7.632;2023-06-26T07:25:10;27.50;90.10
15413;DHT22;7805;49.554;7.632;2023-06-26T07:27:37;27.30;90.00
15413;DHT22;7805;49.554;7.632;2023-06-26T07:30:03;27.20;90.10
15413;DHT22;7805;49.554;7.632;2023-06-26T07:32:29;27.20;90.20
15413;DHT22;7805;49.554;7.632;2023-06-26T07:34:55;27.30;90.30
15413;DHT22;7805;49.554;7.632;2023-06-26T07:37:20;27.40;90.20
15413;DHT22;7805;49.554;7.632;2023-06-26T07:39:48;27.50;90.20
15413;DHT22;7805;49.554;7.632;2023-06-26T07:42:14;27.80;90.00
15413;DHT22;7805;49.554;7.632;2023-06-26T07:44:41;28.20;90.00
15413;DHT22;7805;49.554;7.632;2023-06-26T07:47:06;28.40;88.80
15413;DHT22;7805;49.554;7.632;2023-06-26T07:49:32;28.50;87.00
15413;DHT22;7805;49.554;7.632;2023-06-26T07:51:58;28.60;87.10
15413;DHT22;7805;49.554;7.632;2023-06-26T07:54:23;28.70;85.90
15413;DHT22;7805;49.554;7.632;2023-06-26T07:57:07;28.80;85.60
15413;DHT22;7805;49.554;7.632;2023-06-26T07:59:34;29.20;83.10
15413;DHT22;7805;49.554;7.632;2023-06-26T08:02:00;29.40;83.50
15413;DHT22;7805;49.554;7.632;2023-06-26T08:04:28;29.60;82.40
15413;DHT22;7805;49.554;7.632;2023-06-26T08:06:56;29.60;80.60
15413;DHT22;7805;49.554;7.632;2023-06-26T08:09:24;29.40;81.10
15413;DHT22;7805;49.554;7.632;2023-06-26T08:11:50;29.60;81.00
15413;DHT22;7805;49.554;7.632;2023-06-26T08:14:17;30.10;79.80
15413;DHT22;7805;49.554;7.632;2023-06-26T08:16:43;30.30;79.30
15413;DHT22;7805;49.554;7.632;2023-06-26T08:19:15;30.40;77.80
15413;DHT22;7805;49.554;7.632;2023-06-26T08:21:42;30.50;77.40
15413;DHT22;7805;49.554;7.632;2023-06-26T08:24:07;30.40;77.00
15413;DHT22;7805;49.554;7.632;2023-06-26T08:26:34;30.50;76.60
15413;DHT22;7805;49.554;7.632;2023-06-26T08:29:00;30.40;76.40
15413;DHT22;7805;49.554;7.632;2023-06-26T08:31:25;30.30;76.00
15413;DHT22;7805;49.554;7.632;2023-06-26T08:33:51;30.40;76.70
15413;DHT22;7805;49.554;7.632;2023-06-26T08:36:17;30.50;76.30
15413;DHT22;7805;49.554;7.632;2023-06-26T08:38:43;30.60;76.20
15413;DHT22;7805;49.554;7.632;2023-06-26T08:41:09;30.40;75.70
15413;DHT22;7805;49.554;7.632;2023-06-26T08:43:35;30.00;76.10
15413;DHT22;7805;49.554;7.632;2023-06-26T08:46:02;30.10;77.30
15413;DHT22;7805;49.554;7.632;2023-06-26T08:48:31;30.00;77.50
15413;DHT22;7805;49.554;7.632;2023-06-26T08:50:57;30.10;77.90
15413;DHT22;7805;49.554;7.632;2023-06-26T08:56:00;30.80;77.70
15413;DHT22;7805;49.554;7.632;2023-06-26T08:58:26;31.10;75.60
15413;DHT22;7805;49.554;7.632;2023-06-26T09:00:55;30.80;74.50
15413;DHT22;7805;49.554;7.632;2023-06-26T09:03:21;30.50;73.70
15413;DHT22;7805;49.554;7.632;2023-06-26T09:05:48;30.70;73.60
15413;DHT22;7805;49.554;7.632;2023-06-26T09:08:14;30.70;73.40
15413;DHT22;7805;49.554;7.632;2023-06-26T09:10:40;30.80;72.50
15413;DHT22;7805;49.554;7.632;2023-06-26T09:13:05;30.80;71.10
15413;DHT22;7805;49.554;7.632;2023-06-26T09:15:37;30.90;71.80
15413;DHT22;7805;49.554;7.632;2023-06-26T09:18:05;30.40;70.40
15413;DHT22;7805;49.554;7.632;2023-06-26T09:20:31;30.40;70.90
15413;DHT22;7805;49.554;7.632;2023-06-26T09:22:58;30.20;70.40
15413;DHT22;7805;49.554;7.632;2023-06-26T09:25:24;30.40;70.60
15413;DHT22;7805;49.554;7.632;2023-06-26T09:27:50;30.40;71.10
15413;DHT22;7805;49.554;7.632;2023-06-26T09:30:19;30.80;70.50
15413;DHT22;7805;49.554;7.632;2023-06-26T09:32:45;30.60;69.60
15413;DHT22;7805;49.554;7.632;2023-06-26T09:35:11;30.90;69.90
15413;DHT22;7805;49.554;7.632;2023-06-26T09:37:37;31.30;69.30
15413;DHT22;7805;49.554;7.632;2023-06-26T09:40:03;31.40;68.00
15413;DHT22;7805;49.554;7.632;2023-06-26T09:42:30;31.30;66.50
15413;DHT22;7805;49.554;7.632;2023-06-26T09:44:56;31.50;68.00
15413;DHT22;7805;49.554;7.632;2023-06-26T09:47:22;31.00;66.30
15413;DHT22;7805;49.554;7.632;2023-06-26T09:49:48;31.80;65.40
15413;DHT22;7805;49.554;7.632;2023-06-26T09:52:15;31.90;65.80
15413;DHT22;7805;49.554;7.632;2023-06-26T09:54:45;31.60;63.80
15413;DHT22;7805;49.554;7.632;2023-06-26T09:57:12;30.20;62.60
15413;DHT22;7805;49.554;7.632;2023-06-26T09:59:39;31.40;63.10
15413;DHT22;7805;49.554;7.632;2023-06-26T10:02:05;31.30;63.30
15413;DHT22;7805;49.554;7.632;2023-06-26T10:04:32;31.10;62.10
15413;DHT22;7805;49.554;7.632;2023-06-26T10:06:59;31.00;63.10
15413;DHT22;7805;49.554;7.632;2023-06-26T10:09:27;31.20;63.40
15413;DHT22;7805;49.554;7.632;2023-06-26T10:12:06;31.50;62.20
15413;DHT22;7805;49.554;7.632;2023-06-26T10:14:36;31.70;60.90
15413;DHT22;7805;49.554;7.632;2023-06-26T10:17:07;32.00;60.70
15413;DHT22;7805;49.554;7.632;2023-06-26T10:19:35;31.90;59.10
15413;DHT22;7805;49.554;7.632;2023-06-26T10:22:03;32.00;59.30
15413;DHT22;7805;49.554;7.632;2023-06-26T10:24:32;32.00;59.10
15413;DHT22;7805;49.554;7.632;2023-06-26T10:27:03;32.00;57.60
15413;DHT22;7805;49.554;7.632;2023-06-26T10:29:31;32.00;57.80
15413;DHT22;7805;49.554;7.632;2023-06-26T10:31:59;32.10;57.90
15413;DHT22;7805;49.554;7.632;2023-06-26T10:34:26;32.30;56.80
15413;DHT22;7805;49.554;7.632;2023-06-26T10:37:04;32.10;56.10
15413;DHT22;7805;49.554;7.632;2023-06-26T10:39:49;32.00;56.10
15413;DHT22;7805;49.554;7.632;2023-06-26T10:42:16;32.00;56.30
15413;DHT22;7805;49.554;7.632;2023-06-26T10:44:46;32.20;56.20
15413;DHT22;7805;49.554;7.632;2023-06-26T10:47:32;32.40;55.80
15413;DHT22;7805;49.554;7.632;2023-06-26T10:52:45;32.40;55.70
15413;DHT22;7805;49.554;7.632;2023-06-26T10:55:13;32.30;55.30
15413;DHT22;7805;49.554;7.632;2023-06-26T10:57:38;32.00;54.60
15413;DHT22;7805;49.554;7.632;2023-06-26T11:00:11;31.90;54.90
15413;DHT22;7805;49.554;7.632;2023-06-26T11:02:51;32.00;55.10
15413;DHT22;7805;49.554;7.632;2023-06-26T11:05:28;31.90;54.20
15413;DHT22;7805;49.554;7.632;2023-06-26T11:10:29;31.00;53.00
15413;DHT22;7805;49.554;7.632;2023-06-26T11:12:54;31.00;53.80
15413;DHT22;7805;49.554;7.632;2023-06-26T11:15:25;31.20;53.80
15413;DHT22;7805;49.554;7.632;2023-06-26T11:17:52;31.30;53.70
15413;DHT22;7805;49.554;7.632;2023-06-26T11:20:17;31.70;53.90
15413;DHT22;7805;49.554;7.632;2023-06-26T11:22:43;31.80;53.60
15413;DHT22;7805;49.554;7.632;2023-06-26T11:25:10;31.70;52.90
15413;DHT22;7805;49.554;7.632;2023-06-26T11:27:42;31.40;53.40
15413;DHT22;7805;49.554;7.632;2023-06-26T11:30:10;31.20;53.40
15413;DHT22;7805;49.554;7.632;2023-06-26T11:32:37;31.40;53.80
15413;DHT22;7805;49.554;7.632;2023-06-26T11:35:03;31.40;53.00
15413;DHT22;7805;49.554;7.632;2023-06-26T11:37:33;31.50;53.20
15413;DHT22;7805;49.554;7.632;2023-06-26T11:39:59;31.70;53.00
15413;DHT22;7805;49.554;7.632;2023-06-26T11:42:24;29.60;51.20
15413;DHT22;7805;49.554;7.632;2023-06-26T11:44:51;31.80;51.40
15413;DHT22;7805;49.554;7.632;2023-06-26T11:47:18;31.80;51.60
15413;DHT22;7805;49.554;7.632;2023-06-26T11:49:45;31.70;50.80
15413;DHT22;7805;49.554;7.632;2023-06-26T11:52:11;31.50;49.20
15413;DHT22;7805;49.554;7.632;2023-06-26T11:54:37;31.60;49.30
15413;DHT22;7805;49.554;7.632;2023-06-26T11:57:04;31.40;49.80
15413;DHT22;7805;49.554;7.632;2023-06-26T11:59:38;31.70;50.50
15413;DHT22;7805;49.554;7.632;2023-06-26T12:02:09;31.80;50.10
15413;DHT22;7805;49.554;7.632;2023-06-26T12:04:37;32.00;49.40
15413;DHT22;7805;49.554;7.632;2023-06-26T12:07:05;32.20;48.40
15413;DHT22;7805;49.554;7.632;2023-06-26T12:09:33;32.30;47.60
15413;DHT22;7805;49.554;7.632;2023-06-26T12:11:59;32.30;47.20
15413;DHT22;7805;49.554;7.632;2023-06-26T12:14:26;32.20;47.80
15413;DHT22;7805;49.554;7.632;2023-06-26T12:16:54;32.10;47.40
15413;DHT22;7805;49.554;7.632;2023-06-26T12:19:24;32.00;47.20
15413;DHT22;7805;49.554;7.632;2023-06-26T12:21:51;32.10;47.20
15413;DHT22;7805;49.554;7.632;2023-06-26T12:24:21;32.20;46.70
15413;DHT22;7805;49.554;7.632;2023-06-26T12:26:50;32.00;46.70
15413;DHT22;7805;49.554;7.632;2023-06-26T12:29:18;31.90;46.40
15413;DHT22;7805;49.554;7.632;2023-06-26T12:31:51;31.90;46.60
15413;DHT22;7805;49.554;7.632;2023-06-26T12:34:21;31.90;45.90
15413;DHT22;7805;49.554;7.632;2023-06-26T12:36:50;31.90;45.50
15413;DHT22;7805;49.554;7.632;2023-06-26T12:39:18;32.00;44.50
15413;DHT22;7805;49.554;7.632;2023-06-26T12:41:48;32.00;44.40
15413;DHT22;7805;49.554;7.632;2023-06-26T12:44:24;32.10;44.40
15413;DHT22;7805;49.554;7.632;2023-06-26T12:46:56;31.90;43.80
15413;DHT22;7805;49.554;7.632;2023-06-26T12:52:03;31.80;43.30
15413;DHT22;7805;49.554;7.632;2023-06-26T12:54:29;31.60;44.50
15413;DHT22;7805;49.554;7.632;2023-06-26T12:56:55;31.80;45.50
15413;DHT22;7805;49.554;7.632;2023-06-26T12:59:21;32.00;45.60
15413;DHT22;7805;49.554;7.632;2023-06-26T13:01:47;32.30;45.80
15413;DHT22;7805;49.554;7.632;2023-06-26T13:04:13;32.50;45.00
15413;DHT22;7805;49.554;7.632;2023-06-26T13:06:39;32.30;44.30
15413;DHT22;7805;49.554;7.632;2023-06-26T13:09:04;33.70;45.70
15413;DHT22;7805;49.554;7.632;2023-06-26T13:11:31;32.40;44.60
15413;DHT22;7805;49.554;7.632;2023-06-26T13:13:57;32.50;44.80
15413;DHT22;7805;49.554;7.632;2023-06-26T13:16:22;32.70;43.60
15413;DHT22;7805;49.554;7.632;2023-06-26T13:18:48;32.90;43.40
15413;DHT22;7805;49.554;7.632;2023-06-26T13:21:14;32.90;42.60
15413;DHT22;7805;49.554;7.632;2023-06-26T13:23:40;32.50;42.20
15413;DHT22;7805;49.554;7.632;2023-06-26T13:26:06;32.20;43.00
15413;DHT22;7805;49.554;7.632;2023-06-26T13:28:32;31.90;44.10
15413;DHT22;7805;49.554;7.632;2023-06-26T13:30:58;31.80;44.50
15413;DHT22;7805;49.554;7.632;2023-06-26T13:33:24;32.00;44.60
15413;DHT22;7805;49.554;7.632;2023-06-26T13:35:52;32.00;44.50
15413;DHT22;7805;49.554;7.632;2023-06-26T13:38:21;32.30;44.90
15413;DHT22;7805;49.554;7.632;2023-06-26T13:40:56;32.40;44.70
15413;DHT22;7805;49.554;7.632;2023-06-26T13:43:26;32.70;44.80
15413;DHT22;7805;49.554;7.632;2023-06-26T13:45:53;32.70;44.80
15413;DHT22;7805;49.554;7.632;2023-06-26T13:48:18;32.60;44.90
15413;DHT22;7805;49.554;7.632;2023-06-26T13:50:45;32.30;45.30
15413;DHT22;7805;49.554;7.632;2023-06-26T13:53:12;31.90;45.50
15413;DHT22;7805;49.554;7.632;2023-06-26T13:55:38;31.70;46.10
15413;DHT22;7805;49.554;7.632;2023-06-26T13:58:07;31.50;45.70
15413;DHT22;7805;49.554;7.632;2023-06-26T14:00:34;31.30;45.50
15413;DHT22;7805;49.554;7.632;2023-06-26T14:03:00;31.20;45.60
15413;DHT22;7805;49.554;7.632;2023-06-26T14:05:26;31.20;45.80
15413;DHT22;7805;49.554;7.632;2023-06-26T14:07:52;31.30;45.80
15413;DHT22;7805;49.554;7.632;2023-06-26T14:10:20;31.50;45.30
15413;DHT22;7805;49.554;7.632;2023-06-26T14:12:45;30.50;42.80
15413;DHT22;7805;49.554;7.632;2023-06-26T14:15:11;30.40;43.90
15413;DHT22;7805;49.554;7.632;2023-06-26T14:17:36;30.40;43.90
15413;DHT22;7805;49.554;7.632;2023-06-26T14:20:09;30.60;43.60
15413;DHT22;7805;49.554;7.632;2023-06-26T14:22:39;30.70;43.70
15413;DHT22;7805;49.554;7.632;2023-06-26T14:25:08;30.90;43.70
15413;DHT22;7805;49.554;7.632;2023-06-26T14:27:35;31.20;43.70
15413;DHT22;7805;49.554;7.632;2023-06-26T14:30:01;31.40;43.20
15413;DHT22;7805;49.554;7.632;2023-06-26T14:32:27;31.30;42.50
15413;DHT22;7805;49.554;7.632;2023-06-26T14:34:53;31.10;42.40
15413;DHT22;7805;49.554;7.632;2023-06-26T14:37:18;30.80;42.10
15413;DHT22;7805;49.554;7.632;2023-06-26T14:39:45;30.60;42.80
15413;DHT22;7805;49.554;7.632;2023-06-26T14:42:10;30.40;42.90
15413;DHT22;7805;49.554;7.632;2023-06-26T14:44:36;30.40;43.10
15413;DHT22;7805;49.554;7.632;2023-06-26T14:47:01;30.60;43.20
15413;DHT22;7805;49.554;7.632;2023-06-26T14:49:27;30.60;42.90
15413;DHT22;7805;49.554;7.632;2023-06-26T14:51:53;30.60;42.60
15413;DHT22;7805;49.554;7.632;2023-06-26T14:54:18;30.60;42.70
15413;DHT22;7805;49.554;7.632;2023-06-26T14:56:44;30.60;41.50
15413;DHT22;7805;49.554;7.632;2023-06-26T14:59:11;30.60;41.40
15413;DHT22;7805;49.554;7.632;2023-06-26T15:01:38;30.80;42.40
15413;DHT22;7805;49.554;7.632;2023-06-26T15:04:03;31.20;42.30
15413;DHT22;7805;49.554;7.632;2023-06-26T15:06:29;31.40;42.10
15413;DHT22;7805;49.554;7.632;2023-06-26T15:08:55;31.00;41.90
15413;DHT22;7805;49.554;7.632;2023-06-26T15:11:20;30.90;41.90
15413;DHT22;7805;49.554;7.632;2023-06-26T15:13:46;30.90;42.00
15413;DHT22;7805;49.554;7.632;2023-06-26T15:16:11;31.20;42.10
15413;DHT22;7805;49.554;7.632;2023-06-26T15:18:37;31.50;41.90
15413;DHT22;7805;49.554;7.632;2023-06-26T15:21:02;30.50;41.60
15413;DHT22;7805;49.554;7.632;2023-06-26T15:23:29;30.70;42.70
15413;DHT22;7805;49.554;7.632;2023-06-26T15:25:54;31.00;42.90
15413;DHT22;7805;49.554;7.632;2023-06-26T15:28:20;30.90;42.40
15413;DHT22;7805;49.554;7.632;2023-06-26T15:30:46;30.90;42.20
15413;DHT22;7805;49.554;7.632;2023-06-26T15:33:13;30.90;42.00
15413;DHT22;7805;49.554;7.632;2023-06-26T15:35:39;30.90;41.70
15413;DHT22;7805;49.554;7.632;2023-06-26T15:38:05;30.80;41.70
15413;DHT22;7805;49.554;7.632;2023-06-26T15:40:30;30.80;42.20
15413;DHT22;7805;49.554;7.632;2023-06-26T15:42:56;30.80;41.70
15413;DHT22;7805;49.554;7.632;2023-06-26T15:45:22;30.40;41.30
15413;DHT22;7805;49.554;7.632;2023-06-26T15:47:49;30.00;41.10
15413;DHT22;7805;49.554;7.632;2023-06-26T15:50:16;29.80;41.20
15413;DHT22;7805;49.554;7.632;2023-06-26T15:52:41;29.40;41.20
15413;DHT22;7805;49.554;7.632;2023-06-26T15:55:07;29.50;41.40